Time,TemperatureF,DewpointF,PressureIn,WindDirection,WindDirectionDegrees,WindSpeedMPH,WindSpeedGustMPH,Humidity,HourlyPrecipIn,Conditions,Clouds,dailyrainin,SolarRadiationWatts/m^2,SoftwareType,DateUTC
2013-06-25 00:11:00,79.0,70.0,-100.00,NE,38,4.0,9.0,73,0.00,,,0.00,1.000000,,2013-06-25 05:11:00,
2013-06-25 00:22:00,79.0,70.0,-100.00,NE,38,4.0,9.0,73,0.00,,,0.00,1.000000,,2013-06-25 05:22:00,
2013-06-25 00:32:00,79.0,70.0,-100.00,NE,38,4.0,9.0,73,0.00,,,0.00,1.000000,,2013-06-25 05:32:00,
2013-06-25 00:44:00,79.0,70.0,-100.00,NE,38,4.0,9.0,73,0.00,,,0.00,1.000000,,2013-06-25 05:44:00,
2013-06-25 00:52:00,79.0,70.0,-100.00,NE,38,4.0,9.0,73,0.00,,,0.00,1.000000,,2013-06-25 05:52:00,
2013-06-25 01:11:00,78.0,71.0,-100.00,ENE,66,3.0,6.0,78,0.00,,,0.00,1.000000,,2013-06-25 06:11:00,
2013-06-25 01:22:00,78.0,71.0,-100.00,ENE,66,3.0,6.0,78,0.00,,,0.00,1.000000,,2013-06-25 06:22:00,
2013-06-25 01:33:00,78.0,71.0,-100.00,ENE,66,3.0,6.0,78,0.00,,,0.00,1.000000,,2013-06-25 06:33:00,
2013-06-25 01:43:00,78.0,71.0,-100.00,ENE,66,3.0,6.0,78,0.00,,,0.00,1.000000,,2013-06-25 06:43:00,
2013-06-25 01:52:00,78.0,71.0,-100.00,ENE,66,3.0,6.0,78,0.00,,,0.00,1.000000,,2013-06-25 06:52:00,
2013-06-25 02:11:00,78.0,71.0,-100.00,ENE,59,5.0,9.0,79,0.00,,,0.00,1.000000,,2013-06-25 07:11:00,
2013-06-25 02:22:00,78.0,71.0,-100.00,ENE,59,5.0,9.0,79,0.00,,,0.00,1.000000,,2013-06-25 07:22:00,
2013-06-25 02:33:00,78.0,71.0,-100.00,ENE,59,5.0,9.0,79,0.00,,,0.00,1.000000,,2013-06-25 07:33:00,
2013-06-25 02:43:00,78.0,71.0,-100.00,ENE,59,5.0,9.0,79,0.00,,,0.00,1.000000,,2013-06-25 07:43:00,
2013-06-25 02:52:00,78.0,71.0,-100.00,ENE,59,5.0,9.0,79,0.00,,,0.00,1.000000,,2013-06-25 07:52:00,
2013-06-25 02:53:00,77.0,71.0,-100.00,East,96,4.0,9.0,82,0.00,,,0.00,1.000000,,2013-06-25 07:53:00,
2013-06-25 03:21:00,77.0,71.0,-100.00,East,96,4.0,9.0,82,0.00,,,0.00,1.000000,,2013-06-25 08:21:00,
2013-06-25 03:34:00,77.0,71.0,-100.00,East,96,4.0,9.0,82,0.00,,,0.00,1.000000,,2013-06-25 08:34:00,
2013-06-25 03:43:00,77.0,71.0,-100.00,East,96,4.0,9.0,82,0.00,,,0.00,1.000000,,2013-06-25 08:43:00,
2013-06-25 04:12:00,76.0,72.0,-100.00,East,95,5.0,8.0,87,0.00,,,0.00,1.000000,,2013-06-25 09:12:00,
2013-06-25 04:22:00,76.0,72.0,-100.00,East,95,5.0,8.0,87,0.00,,,0.00,1.000000,,2013-06-25 09:22:00,
2013-06-25 04:33:00,76.0,72.0,-100.00,East,95,5.0,8.0,87,0.00,,,0.00,1.000000,,2013-06-25 09:33:00,
2013-06-25 04:43:00,76.0,72.0,-100.00,East,95,5.0,8.0,87,0.00,,,0.00,1.000000,,2013-06-25 09:43:00,
2013-06-25 04:52:00,76.0,72.0,-100.00,East,95,5.0,8.0,87,0.00,,,0.00,1.000000,,2013-06-25 09:52:00,
2013-06-25 05:11:00,76.0,73.0,-100.00,ENE,71,4.0,8.0,90,0.00,,,0.00,1.000000,,2013-06-25 10:11:00,
2013-06-25 05:21:00,76.0,73.0,-100.00,ENE,71,4.0,8.0,90,0.00,,,0.00,1.000000,,2013-06-25 10:21:00,
2013-06-25 05:33:00,76.0,73.0,-100.00,ENE,71,4.0,8.0,90,0.00,,,0.00,1.000000,,2013-06-25 10:33:00,
2013-06-25 05:42:00,76.0,73.0,-100.00,ENE,71,4.0,8.0,90,0.00,,,0.00,1.000000,,2013-06-25 10:42:00,
2013-06-25 05:52:00,76.0,73.0,-100.00,ENE,71,4.0,8.0,90,0.00,,,0.00,1.000000,,2013-06-25 10:52:00,
2013-06-25 06:22:00,75.0,72.0,-100.00,ENE,66,3.0,9.0,91,0.00,,,0.00,2.000000,,2013-06-25 11:22:00,
2013-06-25 06:34:00,75.0,72.0,-100.00,ENE,66,3.0,9.0,91,0.00,,,0.00,2.000000,,2013-06-25 11:34:00,
2013-06-25 06:43:00,75.0,72.0,-100.00,ENE,66,3.0,9.0,91,0.00,,,0.00,2.000000,,2013-06-25 11:43:00,
2013-06-25 06:52:00,75.0,72.0,-100.00,ENE,66,3.0,9.0,91,0.00,,,0.00,2.000000,,2013-06-25 11:52:00,
2013-06-25 06:53:00,77.0,74.0,-100.00,ENE,59,5.0,9.0,89,0.00,,,0.00,76.000000,,2013-06-25 11:53:00,
2013-06-25 07:11:00,77.0,74.0,-100.00,ENE,59,5.0,9.0,89,0.00,,,0.00,76.000000,,2013-06-25 12:11:00,
2013-06-25 07:22:00,77.0,74.0,-100.00,ENE,59,5.0,9.0,89,0.00,,,0.00,76.000000,,2013-06-25 12:22:00,
2013-06-25 07:33:00,77.0,74.0,-100.00,ENE,59,5.0,9.0,89,0.00,,,0.00,76.000000,,2013-06-25 12:33:00,
2013-06-25 07:43:00,77.0,74.0,-100.00,ENE,59,5.0,9.0,89,0.00,,,0.00,76.000000,,2013-06-25 12:43:00,
2013-06-25 07:53:00,78.0,74.0,-100.00,ENE,73,4.0,9.0,87,0.00,,,0.00,166.000000,,2013-06-25 12:53:00,
2013-06-25 08:12:00,78.0,74.0,-100.00,ENE,73,4.0,9.0,87,0.00,,,0.00,166.000000,,2013-06-25 13:12:00,
2013-06-25 08:22:00,78.0,74.0,-100.00,ENE,73,4.0,9.0,87,0.00,,,0.00,166.000000,,2013-06-25 13:22:00,
2013-06-25 08:34:00,78.0,74.0,-100.00,ENE,73,4.0,9.0,87,0.00,,,0.00,166.000000,,2013-06-25 13:34:00,
2013-06-25 08:42:00,78.0,74.0,-100.00,ENE,73,4.0,9.0,87,0.00,,,0.00,166.000000,,2013-06-25 13:42:00,
2013-06-25 08:53:00,82.0,74.0,-100.00,East,83,7.0,14.0,78,0.00,,,0.00,417.000000,,2013-06-25 13:53:00,
2013-06-25 09:11:00,82.0,74.0,-100.00,East,83,7.0,14.0,78,0.00,,,0.00,417.000000,,2013-06-25 14:11:00,
2013-06-25 09:23:00,82.0,74.0,-100.00,East,83,7.0,14.0,78,0.00,,,0.00,417.000000,,2013-06-25 14:23:00,
2013-06-25 09:34:00,82.0,74.0,-100.00,East,83,7.0,14.0,78,0.00,,,0.00,417.000000,,2013-06-25 14:34:00,
2013-06-25 09:43:00,82.0,74.0,-100.00,East,83,7.0,14.0,78,0.00,,,0.00,417.000000,,2013-06-25 14:43:00,
2013-06-25 09:53:00,84.0,74.0,-100.00,East,83,8.0,16.0,72,0.00,,,0.00,618.000000,,2013-06-25 14:53:00,
2013-06-25 10:11:00,84.0,74.0,-100.00,East,83,8.0,16.0,72,0.00,,,0.00,618.000000,,2013-06-25 15:11:00,
2013-06-25 10:22:00,84.0,74.0,-100.00,East,83,8.0,16.0,72,0.00,,,0.00,618.000000,,2013-06-25 15:22:00,
2013-06-25 10:32:00,84.0,74.0,-100.00,East,83,8.0,16.0,72,0.00,,,0.00,618.000000,,2013-06-25 15:32:00,
2013-06-25 10:44:00,84.0,74.0,-100.00,East,83,8.0,16.0,72,0.00,,,0.00,618.000000,,2013-06-25 15:44:00,
2013-06-25 11:12:00,86.0,73.0,-100.00,East,81,9.0,16.0,66,0.00,,,0.00,794.000000,,2013-06-25 16:12:00,
2013-06-25 11:23:00,86.0,73.0,-100.00,East,81,9.0,16.0,66,0.00,,,0.00,794.000000,,2013-06-25 16:23:00,
2013-06-25 11:35:00,86.0,73.0,-100.00,East,81,9.0,16.0,66,0.00,,,0.00,794.000000,,2013-06-25 16:35:00,
2013-06-25 11:44:00,86.0,73.0,-100.00,East,81,9.0,16.0,66,0.00,,,0.00,794.000000,,2013-06-25 16:44:00,
2013-06-25 11:52:00,86.0,73.0,-100.00,East,81,9.0,16.0,66,0.00,,,0.00,794.000000,,2013-06-25 16:52:00,
2013-06-25 11:53:00,88.0,73.0,-100.00,East,88,8.0,16.0,62,0.00,,,0.00,912.000000,,2013-06-25 16:53:00,
2013-06-25 12:11:00,88.0,73.0,-100.00,East,88,8.0,16.0,62,0.00,,,0.00,912.000000,,2013-06-25 17:11:00,
2013-06-25 12:22:00,88.0,73.0,-100.00,East,88,8.0,16.0,62,0.00,,,0.00,912.000000,,2013-06-25 17:22:00,
2013-06-25 12:33:00,88.0,73.0,-100.00,East,88,8.0,16.0,62,0.00,,,0.00,912.000000,,2013-06-25 17:33:00,
2013-06-25 12:44:00,88.0,73.0,-100.00,East,88,8.0,16.0,62,0.00,,,0.00,912.000000,,2013-06-25 17:44:00,
2013-06-25 13:12:00,90.0,74.0,-100.00,East,88,8.0,15.0,59,0.00,,,0.00,996.000000,,2013-06-25 18:12:00,
2013-06-25 13:22:00,90.0,74.0,-100.00,East,88,8.0,15.0,59,0.00,,,0.00,996.000000,,2013-06-25 18:22:00,
2013-06-25 13:34:00,90.0,74.0,-100.00,East,88,8.0,15.0,59,0.00,,,0.00,996.000000,,2013-06-25 18:34:00,
2013-06-25 13:44:00,90.0,74.0,-100.00,East,88,8.0,15.0,59,0.00,,,0.00,996.000000,,2013-06-25 18:44:00,
2013-06-25 13:52:00,90.0,74.0,-100.00,East,88,8.0,15.0,59,0.00,,,0.00,996.000000,,2013-06-25 18:52:00,
2013-06-25 13:53:00,91.0,73.0,-100.00,East,99,8.0,14.0,56,0.00,,,0.00,999.000000,,2013-06-25 18:53:00,
2013-06-25 14:12:00,91.0,73.0,-100.00,East,99,8.0,14.0,56,0.00,,,0.00,999.000000,,2013-06-25 19:12:00,
2013-06-25 14:22:00,91.0,73.0,-100.00,East,99,8.0,14.0,56,0.00,,,0.00,999.000000,,2013-06-25 19:22:00,
2013-06-25 14:33:00,91.0,73.0,-100.00,East,99,8.0,14.0,56,0.00,,,0.00,999.000000,,2013-06-25 19:33:00,
2013-06-25 14:44:00,91.0,73.0,-100.00,East,99,8.0,14.0,56,0.00,,,0.00,999.000000,,2013-06-25 19:44:00,
2013-06-25 15:11:00,91.0,73.0,-100.00,East,86,8.0,15.0,55,0.00,,,0.00,847.000000,,2013-06-25 20:11:00,
2013-06-25 15:22:00,91.0,73.0,-100.00,East,86,8.0,15.0,55,0.00,,,0.00,847.000000,,2013-06-25 20:22:00,
2013-06-25 15:33:00,91.0,73.0,-100.00,East,86,8.0,15.0,55,0.00,,,0.00,847.000000,,2013-06-25 20:33:00,
2013-06-25 15:42:00,91.0,73.0,-100.00,East,86,8.0,15.0,55,0.00,,,0.00,847.000000,,2013-06-25 20:42:00,
2013-06-25 15:52:00,91.0,73.0,-100.00,East,86,8.0,15.0,55,0.00,,,0.00,847.000000,,2013-06-25 20:52:00,
2013-06-25 15:53:00,91.0,73.0,-100.00,ENE,73,6.0,14.0,55,0.00,,,0.00,803.000000,,2013-06-25 20:53:00,
2013-06-25 16:22:00,91.0,73.0,-100.00,ENE,73,6.0,14.0,55,0.00,,,0.00,803.000000,,2013-06-25 21:22:00,
2013-06-25 16:34:00,91.0,73.0,-100.00,ENE,73,6.0,14.0,55,0.00,,,0.00,803.000000,,2013-06-25 21:34:00,
2013-06-25 16:43:00,91.0,73.0,-100.00,ENE,73,6.0,14.0,55,0.00,,,0.00,803.000000,,2013-06-25 21:43:00,
2013-06-25 17:11:00,90.0,73.0,-100.00,ENE,69,6.0,13.0,57,0.00,,,0.00,561.000000,,2013-06-25 22:11:00,
2013-06-25 17:22:00,90.0,73.0,-100.00,ENE,69,6.0,13.0,57,0.00,,,0.00,561.000000,,2013-06-25 22:22:00,
2013-06-25 17:34:00,90.0,73.0,-100.00,ENE,69,6.0,13.0,57,0.00,,,0.00,561.000000,,2013-06-25 22:34:00,
2013-06-25 17:42:00,90.0,73.0,-100.00,ENE,69,6.0,13.0,57,0.00,,,0.00,561.000000,,2013-06-25 22:42:00,
2013-06-25 17:52:00,90.0,73.0,-100.00,ENE,69,6.0,13.0,57,0.00,,,0.00,561.000000,,2013-06-25 22:52:00,
2013-06-25 18:11:00,88.0,73.0,-100.00,ENE,66,6.0,14.0,61,0.00,,,0.00,427.000000,,2013-06-25 23:11:00,
2013-06-25 18:22:00,88.0,73.0,-100.00,ENE,66,6.0,14.0,61,0.00,,,0.00,427.000000,,2013-06-25 23:22:00,
2013-06-25 18:34:00,88.0,73.0,-100.00,ENE,66,6.0,14.0,61,0.00,,,0.00,427.000000,,2013-06-25 23:34:00,
2013-06-25 18:44:00,88.0,73.0,-100.00,ENE,66,6.0,14.0,61,0.00,,,0.00,427.000000,,2013-06-25 23:44:00,
2013-06-25 18:52:00,88.0,73.0,-100.00,ENE,66,6.0,14.0,61,0.00,,,0.00,427.000000,,2013-06-25 23:52:00,
2013-06-25 19:11:00,87.0,72.0,-100.00,NE,54,6.0,13.0,62,0.00,,,0.00,283.000000,,2013-06-26 00:11:00,
2013-06-25 19:22:00,87.0,72.0,-100.00,NE,54,6.0,13.0,62,0.00,,,0.00,283.000000,,2013-06-26 00:22:00,
2013-06-25 19:33:00,87.0,72.0,-100.00,NE,54,6.0,13.0,62,0.00,,,0.00,283.000000,,2013-06-26 00:33:00,
2013-06-25 19:42:00,87.0,72.0,-100.00,NE,54,6.0,13.0,62,0.00,,,0.00,283.000000,,2013-06-26 00:42:00,
2013-06-25 19:52:00,87.0,72.0,-100.00,NE,54,6.0,13.0,62,0.00,,,0.00,283.000000,,2013-06-26 00:52:00,
2013-06-25 19:53:00,85.0,71.0,-100.00,East,82,7.0,14.0,63,0.00,,,0.00,115.000000,,2013-06-26 00:53:00,
2013-06-25 20:11:00,85.0,71.0,-100.00,East,82,7.0,14.0,63,0.00,,,0.00,115.000000,,2013-06-26 01:11:00,
2013-06-25 20:22:00,85.0,71.0,-100.00,East,82,7.0,14.0,63,0.00,,,0.00,115.000000,,2013-06-26 01:22:00,
2013-06-25 20:33:00,85.0,71.0,-100.00,East,82,7.0,14.0,63,0.00,,,0.00,115.000000,,2013-06-26 01:33:00,
2013-06-25 20:43:00,85.0,71.0,-100.00,East,82,7.0,14.0,63,0.00,,,0.00,115.000000,,2013-06-26 01:43:00,
2013-06-25 20:53:00,83.0,69.0,-100.00,East,92,6.0,13.0,63,0.00,,,0.00,14.000000,,2013-06-26 01:53:00,
2013-06-25 21:11:00,83.0,69.0,-100.00,East,92,6.0,13.0,63,0.00,,,0.00,14.000000,,2013-06-26 02:11:00,
2013-06-25 21:22:00,83.0,69.0,-100.00,East,92,6.0,13.0,63,0.00,,,0.00,14.000000,,2013-06-26 02:22:00,
2013-06-25 21:34:00,83.0,69.0,-100.00,East,92,6.0,13.0,63,0.00,,,0.00,14.000000,,2013-06-26 02:34:00,
2013-06-25 21:43:00,83.0,69.0,-100.00,East,92,6.0,13.0,63,0.00,,,0.00,14.000000,,2013-06-26 02:43:00,
2013-06-25 22:22:00,82.0,69.0,-100.00,ENE,67,5.0,11.0,66,0.00,,,0.00,1.000000,,2013-06-26 03:22:00,
2013-06-25 22:33:00,82.0,69.0,-100.00,ENE,67,5.0,11.0,66,0.00,,,0.00,1.000000,,2013-06-26 03:33:00,
2013-06-25 22:43:00,82.0,69.0,-100.00,ENE,67,5.0,11.0,66,0.00,,,0.00,1.000000,,2013-06-26 03:43:00,
2013-06-25 22:52:00,82.0,69.0,-100.00,ENE,67,5.0,11.0,66,0.00,,,0.00,1.000000,,2013-06-26 03:52:00,
2013-06-25 22:53:00,81.0,71.0,-100.00,ENE,66,6.0,11.0,71,0.00,,,0.00,1.000000,,2013-06-26 03:53:00,
2013-06-25 23:12:00,81.0,71.0,-100.00,ENE,66,6.0,11.0,71,0.00,,,0.00,1.000000,,2013-06-26 04:12:00,
2013-06-25 23:22:00,81.0,71.0,-100.00,ENE,66,6.0,11.0,71,0.00,,,0.00,1.000000,,2013-06-26 04:22:00,
2013-06-25 23:33:00,81.0,71.0,-100.00,ENE,66,6.0,11.0,71,0.00,,,0.00,1.000000,,2013-06-26 04:33:00,
2013-06-25 23:43:00,81.0,71.0,-100.00,ENE,66,6.0,11.0,71,0.00,,,0.00,1.000000,,2013-06-26 04:43:00,